Terminal Aerodrome Forecast
Issued by NWS Nashville, TN

Home | Current Version | Previous Version | Text Only | Print | Product List | Glossary On
Versions: 1 2 3 4 5 6 7 8 9 10 11 12 13 14 15 16 17 18
000
FTUS44 KOHX 030954 AAA
TAFCSV
TAF AMD
KCSV 030954Z 0310/0406 00000KT P6SM SCT200
      TEMPO 0311/0312 5SM BR
     FM031700 36003KT P6SM BKN080 BKN200
     FM040000 00000KT P6SM BKN200=

USA.gov is the U.S. government's official web portal to all federal, state and local government web resources and services.